Decoded Metar for YSDU (DUBBO in AUSTRALIA) (IATA:DBO) | Meteo·Mobile Aviation Weather
aviador You're here:

YSDU Decoded Metar

DUBBO in AUSTRALIA
Report Time2019-07-20 13:00:00
UTC Time2019-07-20 13:25:43
Flight Rules vfr VFR
Wind060° at 04 kt
W.Decomp.*RWY 05: 4.0 kt HW -0 kt LCW
RWY 11: 2.0 kt HW 3.5 kt LCW
Visibility9999 m
Phenomena:N/A
Clouds:N/A
Expected CloudBase > 3,600 ft AGL from Temp-Dew spread
CeilingNone
Temp07°C (ISA -6)
Dew Point-2°C (53% RH)
AAT3.3°C
QNH1020 hPa
Density Alt-3 ft
Elevation902 ft
Report Wrong Elevation
Raw Report
YSDU 201300Z AUTO 06004KT 9999 // NCD 07/M02 Q1020=

Extra information for YSDU:More info

Metar Taf Metar & Taf Last 4 Metars F.Rules Stats Wind Profile Meteogram Temp Stats Airport Information Weather charts Add Link Nearby VenuesMetar ALERT Operation Metar Decoded Social comments